Time;durP1;ratioP1;P1;durP2;ratioP2;P2;SDS_P1;SDS_P2;PMS_P1;PMS_P2;Temp;Humidity;BMP_temperature;BMP_pressure;BME280_temperature;BME280_humidity;BME280_pressure;Samples;Min_cycle;Max_cycle;Signal;HPM_P1;HPM_P2
2021/07/11 00:00:47;;;;;;;7.10;6.50;;;17.60;99.90;;;;;;4956887;29;20175;-82
2021/07/11 00:03:13;;;;;;;7.57;6.50;;;17.50;99.90;;;;;;4955519;28;20166;-80
2021/07/11 00:05:38;;;;;;;7.18;6.38;;;17.40;99.90;;;;;;4956723;29;20170;-80
2021/07/11 00:08:04;;;;;;;7.40;6.70;;;17.50;99.90;;;;;;4956713;29;20195;-80
2021/07/11 00:10:31;;;;;;;10.30;6.05;;;17.50;99.90;;;;;;4956523;29;20198;-80
2021/07/11 00:12:56;;;;;;;6.20;5.70;;;17.60;99.90;;;;;;4957058;29;20214;-79
2021/07/11 00:15:23;;;;;;;8.25;5.38;;;17.60;99.90;;;;;;4939454;29;20210;-81
2021/07/11 00:17:54;;;;;;;6.18;5.68;;;17.60;99.90;;;;;;4956366;29;20181;-82
2021/07/11 00:20:22;;;;;;;10.75;5.95;;;17.60;99.90;;;;;;4956463;29;20170;-85
2021/07/11 00:22:48;;;;;;;7.13;6.43;;;17.70;99.90;;;;;;4956504;29;20167;-81
2021/07/11 00:25:17;;;;;;;9.70;5.78;;;17.70;99.90;;;;;;4956550;29;20237;-80
2021/07/11 00:27:44;;;;;;;11.45;6.15;;;17.80;99.90;;;;;;4956781;29;20632;-82
2021/07/11 00:30:12;;;;;;;7.57;6.07;;;17.70;99.90;;;;;;4938748;29;20662;-81
2021/07/11 00:32:39;;;;;;;11.65;6.00;;;17.60;99.90;;;;;;4956190;29;20174;-80
2021/07/11 00:35:05;;;;;;;8.32;5.07;;;17.60;99.90;;;;;;4956292;29;20201;-80
2021/07/11 00:37:30;;;;;;;6.03;5.43;;;17.40;99.90;;;;;;4956292;29;20171;-80
2021/07/11 00:39:56;;;;;;;8.40;5.50;;;17.40;99.90;;;;;;4956269;29;20175;-80
2021/07/11 00:42:22;;;;;;;6.05;4.90;;;17.30;99.90;;;;;;4938719;29;20186;-80
2021/07/11 00:44:48;;;;;;;7.82;6.18;;;17.40;99.90;;;;;;4938805;29;20190;-82
2021/07/11 00:47:14;;;;;;;10.93;6.32;;;17.40;99.90;;;;;;4956056;29;20588;-80
2021/07/11 00:49:42;;;;;;;6.53;5.93;;;17.30;99.90;;;;;;4955936;29;20171;-80
2021/07/11 00:52:08;;;;;;;6.00;5.50;;;17.20;99.90;;;;;;4955858;29;20198;-80
2021/07/11 00:54:34;;;;;;;13.32;5.97;;;17.20;99.90;;;;;;4938644;29;20200;-81
2021/07/11 00:57:00;;;;;;;6.35;5.75;;;17.40;99.90;;;;;;4938910;29;20167;-83
2021/07/11 00:59:26;;;;;;;7.03;6.38;;;17.30;99.90;;;;;;4955766;29;20166;-82
2021/07/11 01:02:06;;;;;;;6.43;5.72;;;17.20;99.90;;;;;;4955647;29;20682;-84
2021/07/11 01:04:38;;;;;;;6.38;5.50;;;17.10;99.90;;;;;;4938261;29;20522;-80
2021/07/11 01:07:06;;;;;;;12.63;6.53;;;17.10;99.90;;;;;;4955403;29;20537;-83
2021/07/11 01:09:36;;;;;;;9.88;5.55;;;17.00;99.90;;;;;;4955723;29;20175;-80
2021/07/11 01:12:14;;;;;;;9.98;5.90;;;17.00;99.90;;;;;;4955684;29;20268;-83
2021/07/11 01:14:42;;;;;;;6.80;6.15;;;17.00;99.90;;;;;;4954776;28;20248;-80
2021/07/11 01:17:09;;;;;;;6.85;6.25;;;17.20;99.90;;;;;;4955399;29;20175;-80
2021/07/11 01:20:02;;;;;;;6.32;5.72;;;17.20;99.90;;;;;;4955668;29;20665;-81
2021/07/11 01:22:34;;;;;;;6.28;5.78;;;16.90;99.90;;;;;;4955727;29;20170;-80
2021/07/11 01:25:03;;;;;;;7.25;6.50;;;16.90;99.90;;;;;;4955663;29;20289;-80
2021/07/11 01:27:30;;;;;;;13.93;6.28;;;16.70;99.90;;;;;;4938122;29;20178;-80
2021/07/11 01:29:57;;;;;;;6.32;5.80;;;16.80;99.90;;;;;;4955168;29;20240;-80
2021/07/11 01:32:24;;;;;;;7.50;5.10;;;16.80;99.90;;;;;;4955313;29;20182;-81
2021/07/11 01:34:51;;;;;;;6.57;5.32;;;16.80;99.90;;;;;;4955718;29;20204;-80
2021/07/11 01:37:17;;;;;;;7.32;6.03;;;16.80;99.90;;;;;;4955535;29;20254;-80
2021/07/11 01:39:44;;;;;;;6.88;5.70;;;16.60;99.90;;;;;;4938278;29;20192;-80
2021/07/11 01:42:11;;;;;;;6.13;5.53;;;16.40;99.90;;;;;;4937963;29;20206;-80
2021/07/11 01:44:39;;;;;;;11.45;6.65;;;16.50;99.90;;;;;;4937727;29;20202;-80
2021/07/11 01:47:06;;;;;;;9.02;6.40;;;16.30;99.90;;;;;;4955179;29;20197;-85
2021/07/11 01:49:33;;;;;;;12.43;6.57;;;16.40;99.90;;;;;;4955254;29;20171;-83
2021/07/11 01:51:59;;;;;;;8.00;6.28;;;16.40;99.90;;;;;;4954881;29;20238;-81
2021/07/11 01:54:28;;;;;;;12.30;5.80;;;16.50;99.90;;;;;;4937846;29;20225;-80
2021/07/11 01:56:54;;;;;;;6.75;6.15;;;16.40;99.90;;;;;;4955130;29;20174;-80
2021/07/11 01:59:20;;;;;;;10.23;6.03;;;16.50;99.90;;;;;;4954892;29;20177;-80
2021/07/11 02:01:45;;;;;;;8.15;6.10;;;16.50;99.90;;;;;;4938002;29;20188;-80
2021/07/11 02:04:11;;;;;;;11.57;5.68;;;16.40;99.90;;;;;;4959740;28;20230;-80
2021/07/11 02:06:38;;;;;;;6.75;6.00;;;16.50;99.90;;;;;;4973365;28;20268;-81
2021/07/11 02:09:07;;;;;;;6.60;5.75;;;16.40;99.90;;;;;;4955206;29;20581;-81
2021/07/11 02:11:36;;;;;;;5.93;5.43;;;16.50;99.90;;;;;;4954905;29;20202;-80
2021/07/11 02:14:06;;;;;;;11.10;6.38;;;16.30;99.90;;;;;;4954929;29;20398;-80
2021/07/11 02:16:38;;;;;;;7.90;6.15;;;16.50;99.90;;;;;;4954796;29;20185;-80
2021/07/11 02:19:05;;;;;;;7.18;6.40;;;16.40;99.90;;;;;;4954723;29;20683;-80
2021/07/11 02:21:31;;;;;;;6.28;5.68;;;16.40;99.90;;;;;;4937712;29;20174;-80
2021/07/11 02:24:00;;;;;;;7.60;6.57;;;16.50;99.90;;;;;;4955212;29;20190;-79
2021/07/11 02:26:26;;;;;;;6.68;5.25;;;16.60;99.90;;;;;;4941272;29;20534;-88
2021/07/11 02:28:52;;;;;;;9.52;5.50;;;16.60;99.90;;;;;;4959562;29;20174;-81
2021/07/11 02:31:19;;;;;;;6.50;5.63;;;16.60;99.90;;;;;;4959054;29;20217;-82
2021/07/11 02:33:46;;;;;;;8.32;5.80;;;16.70;99.90;;;;;;4941314;29;20217;-80
2021/07/11 02:36:15;;;;;;;6.50;5.90;;;16.60;99.90;;;;;;4941613;29;20265;-80
2021/07/11 02:38:50;;;;;;;10.15;6.47;;;16.40;99.90;;;;;;4958975;29;20174;-81
2021/07/11 02:41:18;;;;;;;6.50;5.90;;;16.30;99.90;;;;;;4941201;29;20202;-81
2021/07/11 02:43:46;;;;;;;6.55;5.70;;;16.40;99.90;;;;;;4940727;29;20194;-81
2021/07/11 02:46:17;;;;;;;6.47;5.00;;;16.20;99.90;;;;;;4958122;29;20212;-81
2021/07/11 02:48:44;;;;;;;10.68;5.75;;;16.10;99.90;;;;;;4941175;29;20183;-82
2021/07/11 02:51:14;;;;;;;11.88;5.00;;;16.10;99.90;;;;;;4941143;29;20198;-81
2021/07/11 02:53:44;;;;;;;7.68;5.68;;;16.20;99.90;;;;;;4941516;29;20551;-84
2021/07/11 02:56:14;;;;;;;6.32;5.75;;;16.20;99.90;;;;;;4941165;29;20171;-80
2021/07/11 02:58:42;;;;;;;7.22;6.07;;;16.20;99.90;;;;;;4941005;29;20229;-81
2021/07/11 03:01:08;;;;;;;5.50;5.03;;;16.20;99.90;;;;;;4958477;29;20225;-82
2021/07/11 03:03:35;;;;;;;5.20;4.80;;;16.00;99.90;;;;;;4957904;29;20233;-80
2021/07/11 03:06:01;;;;;;;12.70;5.65;;;15.90;99.90;;;;;;4940877;29;20265;-81
2021/07/11 03:08:27;;;;;;;5.65;5.15;;;16.00;99.90;;;;;;4957779;29;20185;-80
2021/07/11 03:10:55;;;;;;;12.43;5.80;;;16.00;99.90;;;;;;4957616;29;20215;-84
2021/07/11 03:13:22;;;;;;;6.63;5.93;;;16.00;99.90;;;;;;4957909;29;20189;-81
2021/07/11 03:15:48;;;;;;;5.43;4.50;;;15.90;99.90;;;;;;4957835;29;20178;-81
2021/07/11 03:18:14;;;;;;;7.07;5.18;;;15.80;99.90;;;;;;4940522;29;20173;-80
2021/07/11 03:20:41;;;;;;;6.60;5.85;;;15.80;99.90;;;;;;4940433;29;20535;-80
2021/07/11 03:23:08;;;;;;;5.90;5.13;;;16.00;99.90;;;;;;4957727;29;20632;-81
2021/07/11 03:25:35;;;;;;;14.27;6.32;;;16.10;99.90;;;;;;4940802;29;20560;-82
2021/07/11 03:28:05;;;;;;;12.52;5.03;;;16.20;99.90;;;;;;4941128;29;20169;-91
2021/07/11 03:30:36;;;;;;;5.63;5.22;;;16.20;99.90;;;;;;4957955;29;20210;-86
2021/07/11 03:33:04;;;;;;;5.22;4.72;;;16.30;99.90;;;;;;4940480;29;20189;-81
2021/07/11 03:35:40;;;;;;;4.85;4.45;;;16.00;99.90;;;;;;4940321;29;20201;-81
2021/07/11 03:38:08;;;;;;;6.63;4.78;;;16.10;99.90;;;;;;4956883;28;20653;-80
2021/07/11 03:40:38;;;;;;;5.47;4.97;;;16.30;99.90;;;;;;4939823;29;20181;-80
2021/07/11 03:43:08;;;;;;;18.77;5.80;;;16.40;99.90;;;;;;4957096;29;20628;-82
2021/07/11 03:45:36;;;;;;;5.97;5.45;;;16.50;99.90;;;;;;4957148;29;20167;-80
2021/07/11 03:48:17;;;;;;;9.52;5.97;;;16.50;99.90;;;;;;4940215;29;20210;-80
2021/07/11 03:50:48;;;;;;;5.75;5.20;;;16.50;99.90;;;;;;4942206;29;20322;-80
2021/07/11 03:53:20;;;;;;;7.20;6.50;;;16.40;99.90;;;;;;4950125;28;20163;-80
2021/07/11 03:55:48;;;;;;;6.95;5.95;;;16.50;99.90;;;;;;4979294;28;20202;-81
2021/07/11 03:58:15;;;;;;;6.55;5.95;;;16.50;99.90;;;;;;4964490;28;20242;-80
2021/07/11 04:00:43;;;;;;;7.50;5.72;;;16.30;99.90;;;;;;4981046;28;20250;-80
2021/07/11 04:03:09;;;;;;;8.05;5.72;;;16.20;99.90;;;;;;4981664;28;20179;-80
2021/07/11 04:05:37;;;;;;;7.13;5.88;;;16.00;99.90;;;;;;4981436;28;20182;-80
2021/07/11 04:08:10;;;;;;;9.75;5.97;;;16.00;99.90;;;;;;4964905;28;20170;-80
2021/07/11 04:10:37;;;;;;;6.05;5.45;;;16.10;99.90;;;;;;4981131;28;20203;-80
2021/07/11 04:13:03;;;;;;;8.85;5.68;;;16.10;99.90;;;;;;4980289;28;20200;-80
2021/07/11 04:15:32;;;;;;;6.97;6.07;;;16.20;99.90;;;;;;4964861;28;20210;-80
2021/07/11 04:18:03;;;;;;;5.97;5.43;;;16.20;99.90;;;;;;4980172;28;20186;-81
2021/07/11 04:20:31;;;;;;;6.30;5.80;;;16.10;99.90;;;;;;4962273;28;20185;-80
2021/07/11 04:22:59;;;;;;;7.72;5.97;;;16.00;99.90;;;;;;4964049;28;20179;-80
2021/07/11 04:25:29;;;;;;;5.93;5.32;;;16.00;99.90;;;;;;4980996;28;20178;-81
2021/07/11 04:27:56;;;;;;;7.20;6.20;;;16.20;99.90;;;;;;4979740;28;20180;-80
2021/07/11 04:30:22;;;;;;;6.82;6.22;;;16.20;99.90;;;;;;4980704;28;20185;-80
2021/07/11 04:32:48;;;;;;;6.13;5.63;;;16.30;99.90;;;;;;4988936;23;20234;-83
2021/07/11 04:35:14;;;;;;;7.22;5.65;;;16.50;99.90;;;;;;4938151;28;20666;-80
2021/07/11 04:37:40;;;;;;;8.10;6.35;;;16.40;99.90;;;;;;4935698;29;20234;-81
2021/07/11 04:40:06;;;;;;;12.02;6.00;;;16.50;99.90;;;;;;4937051;29;20632;-82
2021/07/11 04:42:32;;;;;;;5.93;5.05;;;16.60;99.90;;;;;;4937211;29;20175;-81
2021/07/11 04:45:01;;;;;;;6.88;5.55;;;16.70;99.90;;;;;;4935748;29;20191;-82
2021/07/11 04:47:27;;;;;;;5.80;5.18;;;16.80;99.90;;;;;;4935467;29;20222;-81
2021/07/11 04:49:53;;;;;;;6.32;5.35;;;16.90;99.90;;;;;;4934828;29;20719;-81
2021/07/11 04:52:18;;;;;;;6.55;5.78;;;16.80;99.90;;;;;;4937281;29;20206;-81
2021/07/11 04:54:44;;;;;;;6.70;5.57;;;16.90;99.90;;;;;;4951674;28;20199;-81
2021/07/11 04:57:10;;;;;;;7.10;6.40;;;17.00;99.90;;;;;;4937120;29;20176;-81
2021/07/11 04:59:36;;;;;;;7.65;5.82;;;16.80;99.90;;;;;;4937268;29;20175;-81
2021/07/11 05:02:02;;;;;;;7.70;5.63;;;17.00;99.90;;;;;;4937380;29;20502;-81
2021/07/11 05:04:29;;;;;;;8.07;6.32;;;17.00;99.90;;;;;;4935525;29;20191;-83
2021/07/11 05:06:54;;;;;;;6.22;5.72;;;17.10;99.90;;;;;;4951902;28;20566;-81
2021/07/11 05:09:20;;;;;;;8.27;4.63;;;17.30;99.90;;;;;;4935939;29;20254;-81
2021/07/11 05:11:46;;;;;;;6.00;5.50;;;17.20;99.90;;;;;;4936900;29;20207;-80
2021/07/11 05:14:12;;;;;;;6.07;5.45;;;17.10;99.90;;;;;;4935371;29;20727;-83
2021/07/11 05:16:37;;;;;;;6.05;5.45;;;17.10;99.90;;;;;;4936376;29;20182;-82
2021/07/11 05:19:03;;;;;;;7.97;5.90;;;17.40;99.90;;;;;;4936211;29;20179;-81
2021/07/11 05:21:30;;;;;;;7.20;5.50;;;17.50;99.90;;;;;;4936080;29;20246;-83
2021/07/11 05:23:58;;;;;;;6.50;5.70;;;17.30;99.90;;;;;;4934542;29;20195;-82
2021/07/11 05:26:25;;;;;;;6.80;6.20;;;17.50;99.90;;;;;;4950586;28;20636;-83
2021/07/11 05:28:51;;;;;;;6.82;6.20;;;17.70;99.90;;;;;;4936243;29;20179;-81
2021/07/11 05:31:17;;;;;;;6.05;5.45;;;18.00;99.90;;;;;;4935966;29;20210;-82
2021/07/11 05:33:42;;;;;;;9.82;6.57;;;17.90;99.90;;;;;;4936673;29;20199;-81
2021/07/11 05:36:09;;;;;;;11.65;6.63;;;17.90;99.90;;;;;;4937635;29;20648;-83
2021/07/11 05:38:36;;;;;;;13.32;6.78;;;17.90;99.90;;;;;;4934864;29;20632;-81
2021/07/11 05:41:02;;;;;;;8.32;6.30;;;18.00;99.90;;;;;;4934701;29;20318;-81
2021/07/11 05:43:28;;;;;;;8.18;6.50;;;18.00;99.90;;;;;;4936257;29;20266;-83
2021/07/11 05:45:53;;;;;;;12.23;6.68;;;18.00;99.90;;;;;;4935626;29;20203;-81
2021/07/11 05:48:19;;;;;;;10.43;5.93;;;18.00;99.90;;;;;;4935612;29;20651;-81
2021/07/11 05:50:45;;;;;;;10.27;6.60;;;18.00;99.90;;;;;;4934401;29;20727;-81
2021/07/11 05:53:10;;;;;;;11.55;7.38;;;18.00;99.90;;;;;;4934454;29;20231;-81
2021/07/11 05:55:41;;;;;;;8.20;7.20;;;17.90;99.90;;;;;;4934171;29;20215;-82
2021/07/11 05:58:07;;;;;;;12.13;7.63;;;18.10;99.90;;;;;;4934445;29;20179;-82
2021/07/11 06:00:33;;;;;;;9.48;7.50;;;17.90;99.90;;;;;;4935398;29;20222;-81
2021/07/11 06:02:58;;;;;;;8.73;7.85;;;17.80;99.90;;;;;;4935668;29;20171;-81
2021/07/11 06:05:24;;;;;;;10.68;7.85;;;18.10;99.90;;;;;;4934230;29;20209;-81
2021/07/11 06:07:50;;;;;;;10.95;6.95;;;18.30;99.90;;;;;;4934345;29;20588;-81
2021/07/11 06:10:16;;;;;;;9.30;7.05;;;18.40;99.90;;;;;;4935555;29;20175;-82
2021/07/11 06:12:42;;;;;;;8.55;7.03;;;18.30;99.90;;;;;;4934655;29;20226;-80
2021/07/11 06:15:09;;;;;;;7.40;6.57;;;18.50;99.90;;;;;;4940844;29;20255;-81
2021/07/11 06:17:35;;;;;;;9.40;5.85;;;18.50;99.90;;;;;;4945632;29;20155;-81
2021/07/11 06:20:05;;;;;;;7.03;6.28;;;18.40;99.90;;;;;;4938599;29;20178;-82
2021/07/11 06:22:31;;;;;;;6.93;6.22;;;18.30;99.90;;;;;;4935234;29;20633;-81
2021/07/11 06:24:56;;;;;;;7.45;6.72;;;18.30;99.90;;;;;;4935278;29;20206;-80
2021/07/11 06:27:22;;;;;;;9.60;6.00;;;18.30;99.90;;;;;;4935565;29;20167;-81
2021/07/11 06:29:48;;;;;;;10.43;6.47;;;18.30;99.90;;;;;;4935203;29;20277;-82
2021/07/11 06:32:13;;;;;;;7.97;5.57;;;18.50;99.90;;;;;;4935252;29;20691;-80
2021/07/11 06:34:39;;;;;;;6.70;5.75;;;18.60;99.90;;;;;;4933759;29;20210;-81
2021/07/11 06:37:05;;;;;;;9.93;5.63;;;18.60;99.90;;;;;;4934021;29;20512;-82
2021/07/11 06:39:30;;;;;;;7.15;6.45;;;18.70;99.90;;;;;;4933939;29;20207;-84
2021/07/11 06:41:56;;;;;;;6.75;6.03;;;19.10;99.90;;;;;;4935474;29;20175;-82
2021/07/11 06:44:21;;;;;;;9.18;6.70;;;18.70;99.90;;;;;;4934935;29;20195;-79
2021/07/11 06:46:47;;;;;;;10.02;8.63;;;18.80;99.90;;;;;;4931353;29;20274;-84
2021/07/11 06:49:13;;;;;;;10.23;8.48;;;19.00;99.90;;;;;;4935232;29;20178;-84
2021/07/11 06:51:38;;;;;;;9.77;8.18;;;19.30;99.90;;;;;;4949120;28;20211;-79
2021/07/11 06:54:04;;;;;;;9.43;8.55;;;19.70;99.90;;;;;;4934893;29;20195;-78
2021/07/11 06:56:30;;;;;;;10.82;9.07;;;19.80;99.90;;;;;;4934488;29;20171;-80
2021/07/11 06:58:55;;;;;;;10.60;8.60;;;19.80;99.90;;;;;;4934706;29;20226;-80
2021/07/11 07:01:21;;;;;;;9.75;6.65;;;20.10;99.90;;;;;;4934807;29;20258;-80
2021/07/11 07:03:47;;;;;;;6.30;5.70;;;20.20;99.90;;;;;;4934764;29;20274;-80
2021/07/11 07:06:13;;;;;;;5.68;4.78;;;20.50;99.90;;;;;;4935120;29;20258;-82
2021/07/11 07:08:38;;;;;;;5.43;4.93;;;20.40;99.90;;;;;;4934642;29;20178;-79
2021/07/11 07:11:04;;;;;;;8.70;4.57;;;20.50;99.90;;;;;;4934639;29;20238;-79
2021/07/11 07:13:30;;;;;;;7.05;4.68;;;20.60;99.90;;;;;;4935116;29;20191;-79
2021/07/11 07:15:55;;;;;;;6.10;5.50;;;20.70;99.90;;;;;;4936820;29;20193;-80
2021/07/11 07:18:21;;;;;;;7.53;5.93;;;20.60;99.90;;;;;;4918310;29;20213;-81
2021/07/11 07:20:47;;;;;;;5.80;5.30;;;20.60;99.90;;;;;;4919168;29;20255;-82
2021/07/11 07:23:12;;;;;;;7.50;5.30;;;20.60;99.90;;;;;;4917903;29;20187;-81
2021/07/11 07:25:38;;;;;;;5.15;4.65;;;20.70;99.90;;;;;;4917854;29;20643;-79
2021/07/11 07:28:04;;;;;;;5.95;4.03;;;21.60;99.90;;;;;;4938026;29;20195;-82
2021/07/11 07:30:30;;;;;;;5.88;5.10;;;21.90;99.90;;;;;;4936709;29;20171;-82
2021/07/11 07:32:55;;;;;;;6.88;5.07;;;21.80;99.90;;;;;;4938102;29;20662;-82
2021/07/11 07:35:22;;;;;;;5.75;5.22;;;21.30;99.90;;;;;;4937998;29;20198;-82
2021/07/11 07:37:49;;;;;;;7.88;5.45;;;21.30;99.90;;;;;;4938338;29;20233;-83
2021/07/11 07:40:17;;;;;;;8.15;5.13;;;21.00;99.90;;;;;;4932455;29;20247;-83
2021/07/11 07:42:44;;;;;;;5.05;4.65;;;20.80;99.90;;;;;;4934722;29;20179;-83
2021/07/11 07:45:10;;;;;;;5.78;4.53;;;21.00;99.90;;;;;;4952639;28;20191;-83
2021/07/11 07:47:36;;;;;;;4.40;4.00;;;21.20;99.90;;;;;;4937277;29;20198;-83
2021/07/11 07:50:03;;;;;;;4.13;3.83;;;21.10;99.90;;;;;;4938948;29;20539;-82
2021/07/11 07:52:29;;;;;;;4.88;3.85;;;21.40;99.90;;;;;;4937892;29;20206;-83
2021/07/11 07:54:54;;;;;;;3.22;3.03;;;21.60;99.90;;;;;;4937061;29;20282;-82
2021/07/11 07:57:20;;;;;;;4.10;3.70;;;21.30;99.90;;;;;;4951169;28;20171;-82
2021/07/11 07:59:45;;;;;;;5.07;4.15;;;21.10;99.90;;;;;;4951934;28;20167;-82
2021/07/11 08:02:11;;;;;;;3.55;3.22;;;21.10;99.90;;;;;;4925587;29;20187;-83
2021/07/11 08:04:37;;;;;;;3.13;2.65;;;20.80;99.90;;;;;;4932497;29;20195;-82
2021/07/11 08:07:03;;;;;;;3.92;3.63;;;21.00;99.90;;;;;;4934532;29;20579;-83
2021/07/11 08:09:28;;;;;;;3.00;2.78;;;21.10;99.90;;;;;;4939043;29;20175;-83
2021/07/11 08:11:54;;;;;;;5.50;3.80;;;21.00;99.90;;;;;;4935851;29;20230;-81
2021/07/11 08:14:19;;;;;;;5.63;2.80;;;21.30;99.90;;;;;;4935616;29;20776;-82
2021/07/11 08:16:45;;;;;;;2.80;2.60;;;21.40;99.90;;;;;;4936432;29;20187;-83
2021/07/11 08:19:11;;;;;;;3.15;2.72;;;21.40;99.90;;;;;;4935757;29;20167;-83
2021/07/11 08:21:37;;;;;;;3.33;2.20;;;22.00;99.90;;;;;;4937273;29;20186;-83
2021/07/11 08:24:03;;;;;;;3.75;3.17;;;22.10;99.90;;;;;;4935801;29;20221;-84
2021/07/11 08:26:31;;;;;;;6.90;2.22;;;22.30;99.90;;;;;;4937337;29;20524;-84
2021/07/11 08:28:57;;;;;;;2.55;2.35;;;22.40;99.90;;;;;;4936243;29;20163;-84
2021/07/11 08:31:23;;;;;;;3.65;2.22;;;22.20;99.90;;;;;;4935594;29;20290;-84
2021/07/11 08:33:49;;;;;;;2.60;2.40;;;22.30;99.90;;;;;;4935624;29;20645;-83
2021/07/11 08:36:14;;;;;;;1.88;1.58;;;22.60;99.90;;;;;;4936877;29;20180;-83
2021/07/11 08:38:40;;;;;;;2.47;2.10;;;22.50;99.90;;;;;;4935798;29;20556;-83
2021/07/11 08:41:06;;;;;;;3.38;3.05;;;22.40;99.90;;;;;;4936802;29;20179;-82
2021/07/11 08:43:32;;;;;;;3.03;2.35;;;22.10;99.90;;;;;;4952165;28;20203;-82
2021/07/11 08:45:57;;;;;;;2.60;2.22;;;22.30;99.90;;;;;;4936826;29;20580;-82
2021/07/11 08:48:23;;;;;;;3.25;2.38;;;22.10;99.90;;;;;;4936846;29;20226;-88
2021/07/11 08:50:49;;;;;;;3.05;2.75;;;21.80;99.90;;;;;;4935640;29;20229;-83
2021/07/11 08:53:15;;;;;;;3.00;2.58;;;21.50;99.90;;;;;;4935689;29;20210;-84
2021/07/11 08:55:42;;;;;;;1.98;1.77;;;21.80;99.90;;;;;;4935108;29;20172;-84
2021/07/11 08:58:09;;;;;;;2.15;1.95;;;22.20;99.90;;;;;;4936058;29;20521;-84
2021/07/11 09:00:39;;;;;;;2.60;2.40;;;22.20;99.90;;;;;;4935009;29;20254;-81
2021/07/11 09:03:06;;;;;;;2.42;2.22;;;22.30;99.90;;;;;;4936744;29;20172;-84
2021/07/11 09:05:41;;;;;;;2.92;2.65;;;21.80;99.90;;;;;;4943306;29;20258;-85
2021/07/11 09:08:10;;;;;;;3.08;2.78;;;21.70;99.90;;;;;;4945149;29;20183;-83
2021/07/11 09:10:42;;;;;;;3.78;2.75;;;21.50;99.90;;;;;;4948901;29;20203;-83
2021/07/11 09:13:14;;;;;;;3.20;2.90;;;21.70;99.90;;;;;;4936954;29;20199;-84
2021/07/11 09:15:44;;;;;;;2.83;2.17;;;21.80;99.90;;;;;;4935422;29;20174;-82
2021/07/11 09:18:11;;;;;;;3.50;3.20;;;21.80;99.90;;;;;;4937008;29;20167;-83
2021/07/11 09:20:49;;;;;;;4.80;3.17;;;21.80;99.90;;;;;;4951955;28;20249;-83
2021/07/11 09:23:15;;;;;;;2.75;2.55;;;22.00;99.90;;;;;;4935224;29;20723;-83
2021/07/11 09:25:40;;;;;;;2.80;2.60;;;22.00;99.90;;;;;;4935340;29;20266;-87
2021/07/11 09:28:13;;;;;;;4.65;2.50;;;22.10;99.90;;;;;;4936545;29;20222;-89
2021/07/11 09:30:41;;;;;;;10.43;2.25;;;22.10;99.90;;;;;;4939577;29;20213;-85
2021/07/11 09:33:17;;;;;;;2.53;1.98;;;22.00;99.90;;;;;;4935773;29;20594;-83
2021/07/11 09:35:43;;;;;;;2.60;2.40;;;22.30;99.90;;;;;;4952161;28;20236;-83
2021/07/11 09:38:08;;;;;;;2.92;2.72;;;22.40;99.90;;;;;;4936354;29;20176;-89
2021/07/11 09:40:35;;;;;;;3.13;2.83;;;22.30;99.90;;;;;;4936649;29;20190;-88
2021/07/11 09:43:01;;;;;;;2.42;2.22;;;22.10;99.90;;;;;;4936356;29;20176;-88
2021/07/11 09:45:29;;;;;;;2.40;1.90;;;22.10;99.90;;;;;;4934127;29;20559;-86
2021/07/11 09:48:10;;;;;;;2.65;2.00;;;22.00;99.90;;;;;;4930105;29;20274;-88
2021/07/11 09:50:36;;;;;;;2.00;1.90;;;22.00;99.90;;;;;;4927201;29;20177;-86
2021/07/11 09:53:02;;;;;;;6.30;1.55;;;22.50;99.90;;;;;;4934314;29;20179;-89
2021/07/11 09:55:33;;;;;;;1.65;1.55;;;22.90;99.90;;;;;;4923411;29;20278;-86
2021/07/11 09:58:08;;;;;;;1.95;1.65;;;22.60;99.90;;;;;;4932962;29;20227;-86
2021/07/11 10:00:35;;;;;;;2.50;1.58;;;22.40;99.90;;;;;;4916473;29;20191;-84
2021/07/11 10:03:07;;;;;;;1.58;1.30;;;22.50;99.90;;;;;;4916633;29;20247;-85
2021/07/11 10:05:34;;;;;;;1.52;1.40;;;23.00;99.90;;;;;;4916676;29;20176;-85
2021/07/11 10:08:00;;;;;;;1.25;1.15;;;23.20;99.90;;;;;;4916968;29;20192;-86
2021/07/11 10:10:33;;;;;;;1.98;1.50;;;23.30;99.90;;;;;;4918369;29;20291;-86
2021/07/11 10:13:00;;;;;;;2.13;1.67;;;23.50;99.90;;;;;;4916811;29;20680;-86
2021/07/11 10:15:29;;;;;;;1.50;1.40;;;23.40;99.90;;;;;;4917691;29;20188;-85
2021/07/11 10:18:04;;;;;;;2.30;1.45;;;23.80;99.90;;;;;;4934118;29;20270;-86
2021/07/11 10:20:35;;;;;;;1.67;1.58;;;23.80;99.90;;;;;;4917373;29;20171;-89
2021/07/11 10:23:02;;;;;;;1.30;1.20;;;24.00;99.90;;;;;;4918666;29;20172;-91
2021/07/11 10:25:30;;;;;;;2.22;1.98;;;23.90;99.90;;;;;;4934895;29;20191;-84
2021/07/11 10:28:09;;;;;;;9.63;2.85;;;24.10;99.90;;;;;;4935486;29;20178;-86
2021/07/11 10:30:41;;;;;;;1.30;1.20;;;24.00;99.90;;;;;;4935193;29;20958;-84
2021/07/11 10:33:12;;;;;;;3.28;1.60;;;23.70;99.90;;;;;;4936909;29;20229;-88
2021/07/11 10:36:06;;;;;;;1.48;1.30;;;23.70;99.90;;;;;;4940882;29;20226;-85
2021/07/11 10:38:43;;;;;;;4.10;1.60;;;23.90;99.90;;;;;;4942092;29;20186;-88
2021/07/11 10:41:27;;;;;;;2.33;1.65;;;23.40;99.90;;;;;;4941224;29;20257;-89
2021/07/11 10:44:06;;;;;;;1.63;1.50;;;23.50;99.90;;;;;;4935558;29;20205;-85
2021/07/11 10:46:46;;;;;;;0.90;0.90;;;23.30;99.90;;;;;;4936480;29;20209;-83
2021/07/11 10:49:20;;;;;;;1.33;1.23;;;23.50;99.90;;;;;;4939295;29;20179;-84
2021/07/11 10:51:48;;;;;;;2.70;1.63;;;23.70;99.90;;;;;;4939142;29;20298;-84
2021/07/11 10:54:21;;;;;;;1.65;1.13;;;23.30;99.90;;;;;;4940184;29;20226;-84
2021/07/11 10:56:53;;;;;;;1.50;1.40;;;23.60;99.90;;;;;;4941442;29;20211;-86
2021/07/11 10:59:35;;;;;;;1.77;1.25;;;23.70;99.90;;;;;;4939656;29;20175;-87
2021/07/11 11:02:05;;;;;;;1.25;1.15;;;23.70;99.90;;;;;;4938902;29;20167;-86
2021/07/11 11:04:31;;;;;;;3.67;1.33;;;23.30;99.90;;;;;;4938036;29;20199;-86
2021/07/11 11:07:11;;;;;;;4.45;1.40;;;23.20;99.90;;;;;;4938054;29;20690;-84
2021/07/11 11:09:39;;;;;;;1.38;1.20;;;23.40;99.90;;;;;;4937951;29;20171;-85
2021/07/11 11:12:18;;;;;;;1.52;1.42;;;23.80;99.90;;;;;;4932350;29;20245;-90
2021/07/11 11:15:15;;;;;;;4.15;1.35;;;23.60;99.90;;;;;;4928088;29;20199;-93
2021/07/11 11:17:41;;;;;;;1.40;1.30;;;23.30;99.90;;;;;;4938146;29;20187;-90
2021/07/11 11:20:16;;;;;;;1.38;1.17;;;23.50;99.90;;;;;;4939577;29;20250;-85
2021/07/11 11:22:54;;;;;;;1.30;1.20;;;23.40;99.90;;;;;;4937511;29;20620;-85
2021/07/11 11:25:21;;;;;;;2.22;1.30;;;23.20;99.90;;;;;;4938224;29;20265;-79
2021/07/11 11:27:53;;;;;;;1.30;1.20;;;23.00;99.90;;;;;;4937255;29;20164;-87
2021/07/11 11:30:22;;;;;;;3.08;2.22;;;22.90;99.90;;;;;;4938694;29;20532;-79
2021/07/11 11:32:53;;;;;;;1.55;1.45;;;22.90;99.90;;;;;;4938355;29;20190;-79
2021/07/11 11:35:21;;;;;;;1.38;1.27;;;23.20;99.90;;;;;;4938216;29;20664;-86
2021/07/11 11:37:59;;;;;;;4.88;1.40;;;23.20;99.90;;;;;;4937451;29;20171;-84
2021/07/11 11:40:26;;;;;;;2.00;1.23;;;23.50;99.90;;;;;;4937788;29;20262;-79
2021/07/11 11:42:58;;;;;;;3.28;1.10;;;23.40;99.90;;;;;;4937838;29;20160;-77
2021/07/11 11:45:26;;;;;;;1.45;1.35;;;23.10;99.90;;;;;;4937793;29;20562;-77
2021/07/11 11:48:09;;;;;;;1.27;1.17;;;23.00;99.90;;;;;;4938630;29;20195;-77
2021/07/11 11:50:36;;;;;;;1.58;1.48;;;22.80;99.90;;;;;;4938053;29;20171;-77
2021/07/11 11:53:15;;;;;;;1.70;1.60;;;22.80;99.90;;;;;;4938597;29;20171;-96
2021/07/11 11:55:51;;;;;;;2.08;1.25;;;22.80;99.90;;;;;;4939454;29;20249;-79
2021/07/11 11:58:30;;;;;;;1.58;1.48;;;22.80;99.90;;;;;;4946399;29;20182;-79
2021/07/11 12:01:05;;;;;;;1.67;1.45;;;22.70;99.90;;;;;;4949569;29;20171;-78
2021/07/11 12:03:31;;;;;;;1.30;1.17;;;23.00;99.90;;;;;;4953167;29;20218;-79
2021/07/11 12:06:01;;;;;;;3.90;1.35;;;23.20;99.90;;;;;;4948516;29;20267;-78
2021/07/11 12:08:28;;;;;;;2.45;2.05;;;23.40;99.90;;;;;;4938683;29;20216;-83
2021/07/11 12:10:54;;;;;;;2.63;1.55;;;23.60;99.90;;;;;;4940528;29;20289;-84
2021/07/11 12:13:24;;;;;;;1.10;0.98;;;23.90;99.90;;;;;;4940704;29;20225;-78
2021/07/11 12:15:59;;;;;;;0.80;0.70;;;24.10;99.90;;;;;;4946553;29;20167;-83
2021/07/11 12:18:25;;;;;;;1.45;0.90;;;24.00;99.90;;;;;;4950283;29;20183;-79
2021/07/11 12:20:53;;;;;;;0.77;0.68;;;24.10;99.90;;;;;;4951018;28;20178;-79
2021/07/11 12:23:20;;;;;;;3.60;0.80;;;24.40;99.90;;;;;;4940766;29;20175;-79
2021/07/11 12:26:00;;;;;;;2.47;1.00;;;24.30;99.90;;;;;;4937694;29;20251;-96
2021/07/11 12:28:26;;;;;;;0.82;0.82;;;24.50;99.90;;;;;;4937231;29;20171;-76
2021/07/11 12:30:54;;;;;;;2.05;0.80;;;24.80;99.90;;;;;;4937448;29;20199;-77
2021/07/11 12:33:35;;;;;;;0.73;0.73;;;25.20;99.90;;;;;;4937236;29;20194;-79
2021/07/11 12:36:04;;;;;;;0.77;0.63;;;25.20;99.90;;;;;;4937788;29;20164;-83
2021/07/11 12:38:35;;;;;;;0.98;0.93;;;25.10;99.90;;;;;;4938325;29;20649;-79
2021/07/11 12:41:04;;;;;;;1.67;1.58;;;25.10;99.90;;;;;;4936204;29;20525;-81
2021/07/11 12:43:31;;;;;;;1.13;1.02;;;24.80;99.90;;;;;;4937763;29;20695;-78
2021/07/11 12:45:59;;;;;;;1.55;0.60;;;24.60;99.90;;;;;;4937620;29;20175;-78
2021/07/11 12:48:48;;;;;;;3.38;0.63;;;24.80;99.90;;;;;;4938395;29;20516;-78
2021/07/11 12:51:25;;;;;;;1.17;0.80;;;25.00;99.90;;;;;;4938060;29;20218;-96